Time;durP1;ratioP1;P1;durP2;ratioP2;P2;SDS_P1;SDS_P2;PMS_P1;PMS_P2;Temp;Humidity;BMP_temperature;BMP_pressure;BME280_temperature;BME280_humidity;BME280_pressure;Samples;Min_cycle;Max_cycle;Signal;HPM_P1;HPM_P2
2021/06/06 00:02:11;;;;;;;7.50;3.72;;;17.20;99.90;;;;;;5097365;28;20032;-73
2021/06/06 00:04:44;;;;;;;6.50;4.03;;;17.20;99.90;;;;;;5113183;28;20358;-73
2021/06/06 00:07:14;;;;;;;9.45;4.72;;;17.30;99.90;;;;;;5114403;28;20047;-73
2021/06/06 00:09:40;;;;;;;9.10;4.32;;;17.30;99.90;;;;;;5105297;28;20035;-73
2021/06/06 00:12:08;;;;;;;6.55;4.20;;;17.40;99.90;;;;;;5095411;28;20089;-73
2021/06/06 00:14:37;;;;;;;8.30;3.67;;;17.20;99.90;;;;;;5094293;28;20127;-73
2021/06/06 00:17:09;;;;;;;8.95;3.83;;;17.40;99.90;;;;;;5093101;28;20044;-73
2021/06/06 00:19:36;;;;;;;9.20;4.38;;;17.40;99.90;;;;;;5099289;28;20493;-73
2021/06/06 00:22:04;;;;;;;9.30;4.18;;;17.20;99.90;;;;;;5113220;28;20085;-73
2021/06/06 00:24:33;;;;;;;5.53;3.13;;;17.40;99.90;;;;;;5094632;28;20050;-73
2021/06/06 00:27:00;;;;;;;7.50;3.90;;;17.30;99.90;;;;;;5094398;28;20397;-73
2021/06/06 00:29:27;;;;;;;7.55;3.65;;;17.30;99.90;;;;;;5102257;28;20088;-73
2021/06/06 00:31:54;;;;;;;8.35;3.85;;;17.50;99.90;;;;;;5098127;28;20051;-73
2021/06/06 00:34:24;;;;;;;5.40;3.63;;;17.20;99.90;;;;;;5109922;28;20552;-73
2021/06/06 00:36:52;;;;;;;7.00;3.80;;;17.20;99.90;;;;;;5110244;28;20031;-73
2021/06/06 00:39:19;;;;;;;7.82;3.85;;;17.30;99.90;;;;;;5112658;28;20405;-73
2021/06/06 00:41:46;;;;;;;8.35;3.97;;;17.20;99.90;;;;;;5099705;28;20027;-73
2021/06/06 00:44:14;;;;;;;6.88;4.30;;;17.30;99.90;;;;;;5094222;28;20031;-73
2021/06/06 00:46:42;;;;;;;6.80;3.97;;;17.20;99.90;;;;;;5103146;28;20110;-73
2021/06/06 00:49:08;;;;;;;8.25;4.47;;;17.10;99.90;;;;;;5093870;28;20382;-73
2021/06/06 00:51:50;;;;;;;7.25;4.03;;;17.10;99.90;;;;;;5093772;28;20081;-73
2021/06/06 00:54:27;;;;;;;7.80;3.90;;;17.10;99.90;;;;;;5094066;28;20043;-73
2021/06/06 00:57:02;;;;;;;8.82;4.78;;;17.20;99.90;;;;;;5094091;28;20116;-73
2021/06/06 00:59:28;;;;;;;6.20;3.38;;;17.30;99.90;;;;;;5093780;28;20095;-73
2021/06/06 01:01:55;;;;;;;6.25;4.13;;;17.10;99.90;;;;;;5093822;28;20028;-73
2021/06/06 01:04:22;;;;;;;6.50;3.70;;;17.00;99.90;;;;;;5099142;28;20477;-73
2021/06/06 01:06:51;;;;;;;6.00;4.20;;;16.90;99.90;;;;;;5093848;28;20039;-73
2021/06/06 01:09:20;;;;;;;7.25;3.88;;;16.80;99.90;;;;;;5097280;28;20016;-73
2021/06/06 01:12:14;;;;;;;8.25;4.38;;;16.60;99.90;;;;;;5102282;28;20478;-73
2021/06/06 01:14:55;;;;;;;5.72;3.72;;;16.70;99.90;;;;;;5093271;28;20096;-73
2021/06/06 01:17:46;;;;;;;7.18;4.13;;;16.70;99.90;;;;;;5093476;28;20377;-73
2021/06/06 01:20:45;;;;;;;7.43;3.47;;;16.80;99.90;;;;;;5093858;28;20056;-72
2021/06/06 01:23:20;;;;;;;6.05;3.65;;;17.00;99.90;;;;;;5084299;28;20085;-73
2021/06/06 01:25:50;;;;;;;5.63;3.63;;;17.00;99.90;;;;;;5098290;28;20032;-73
2021/06/06 01:28:37;;;;;;;8.35;4.47;;;17.10;99.90;;;;;;5107256;28;20092;-73
2021/06/06 01:31:05;;;;;;;6.82;4.18;;;16.90;99.90;;;;;;5093376;28;20470;-73
2021/06/06 01:33:44;;;;;;;6.22;3.55;;;16.80;99.90;;;;;;5092980;28;20544;-73
2021/06/06 01:36:25;;;;;;;6.82;3.85;;;16.80;99.90;;;;;;5093122;28;20035;-73
2021/06/06 01:38:59;;;;;;;7.60;4.10;;;16.70;99.90;;;;;;5092763;28;20024;-73
2021/06/06 01:41:28;;;;;;;;;;;16.80;99.90;;;;;;5097338;28;20529;-73
2021/06/06 01:43:57;;;;;;;10.68;4.10;;;16.80;99.90;;;;;;5098978;28;19908;-72
2021/06/06 01:46:39;;;;;;;6.20;3.20;;;16.80;99.90;;;;;;5110961;28;20024;-73
2021/06/06 01:49:08;;;;;;;8.20;3.78;;;16.90;99.90;;;;;;5095354;28;20131;-73
2021/06/06 01:51:38;;;;;;;5.68;3.30;;;16.70;99.90;;;;;;5093038;28;20024;-73
2021/06/06 01:54:08;;;;;;;6.53;3.47;;;16.70;99.90;;;;;;5105741;28;20568;-73
2021/06/06 01:56:36;;;;;;;6.03;3.88;;;16.60;99.90;;;;;;5112107;28;20015;-73
2021/06/06 01:59:08;;;;;;;7.03;3.75;;;16.70;99.90;;;;;;5111672;28;20067;-73
2021/06/06 02:01:34;;;;;;;6.38;4.20;;;16.60;99.90;;;;;;5095556;28;20431;-73
2021/06/06 02:04:02;;;;;;;5.70;3.75;;;16.70;99.90;;;;;;5110839;28;20016;-73
2021/06/06 02:06:35;;;;;;;6.57;3.85;;;16.60;99.90;;;;;;5092563;28;20107;-73
2021/06/06 02:09:06;;;;;;;7.07;4.35;;;16.70;99.90;;;;;;5095240;28;20496;-73
2021/06/06 02:11:43;;;;;;;5.63;3.25;;;16.50;99.90;;;;;;5111937;28;20031;-73
2021/06/06 02:14:18;;;;;;;6.72;3.60;;;16.50;99.90;;;;;;5106909;28;20040;-73
2021/06/06 02:16:54;;;;;;;5.90;3.70;;;16.60;99.90;;;;;;5098209;28;20023;-73
2021/06/06 02:19:24;;;;;;;7.85;4.50;;;16.60;99.90;;;;;;5106981;28;20015;-73
2021/06/06 02:21:51;;;;;;;6.10;3.35;;;16.60;99.90;;;;;;5097755;28;20119;-73
2021/06/06 02:24:18;;;;;;;5.90;3.47;;;16.40;99.90;;;;;;5092225;28;20431;-74
2021/06/06 02:27:10;;;;;;;8.25;3.50;;;16.40;99.90;;;;;;5091690;28;20363;-73
2021/06/06 02:29:59;;;;;;;7.47;3.90;;;16.30;99.90;;;;;;5092174;28;20085;-73
2021/06/06 02:32:38;;;;;;;8.02;3.63;;;16.30;99.90;;;;;;5088663;28;20509;-73
2021/06/06 02:35:19;;;;;;;6.95;3.63;;;16.30;99.90;;;;;;5092466;28;20118;-72
2021/06/06 02:37:51;;;;;;;6.35;3.65;;;16.20;99.90;;;;;;5091840;28;20023;-73
2021/06/06 02:40:25;;;;;;;6.25;3.13;;;16.20;99.90;;;;;;5092116;28;20032;-73
2021/06/06 02:42:54;;;;;;;7.32;3.53;;;16.10;99.90;;;;;;5091824;28;20450;-73
2021/06/06 02:45:28;;;;;;;7.47;3.35;;;16.00;99.90;;;;;;5100584;28;20050;-73
2021/06/06 02:48:10;;;;;;;5.80;3.78;;;15.80;99.90;;;;;;5108685;28;20022;-73
2021/06/06 02:50:39;;;;;;;8.98;3.40;;;15.90;99.90;;;;;;5096293;28;20055;-73
2021/06/06 02:53:11;;;;;;;5.43;3.40;;;15.70;99.90;;;;;;5104468;28;20081;-73
2021/06/06 02:55:44;;;;;;;6.82;4.10;;;15.70;99.90;;;;;;5091748;28;20036;-73
2021/06/06 02:58:24;;;;;;;4.50;3.10;;;15.80;99.90;;;;;;5091851;28;20024;-73
2021/06/06 03:00:55;;;;;;;7.72;4.07;;;15.80;99.90;;;;;;5104734;28;20024;-73
2021/06/06 03:03:36;;;;;;;8.57;4.20;;;15.80;99.90;;;;;;5099565;28;20024;-73
2021/06/06 03:06:08;;;;;;;5.85;3.53;;;15.90;99.90;;;;;;5084345;28;20032;-72
2021/06/06 03:08:35;;;;;;;5.93;3.58;;;15.90;99.90;;;;;;5094851;28;20102;-73
2021/06/06 03:11:04;;;;;;;5.93;3.40;;;15.90;99.90;;;;;;5103408;28;20485;-73
2021/06/06 03:13:52;;;;;;;6.93;4.40;;;15.70;99.90;;;;;;5093403;28;20020;-73
2021/06/06 03:16:19;;;;;;;6.97;3.85;;;15.70;99.90;;;;;;5083693;28;20487;-73
2021/06/06 03:18:49;;;;;;;6.50;4.22;;;15.90;99.90;;;;;;5083885;28;20031;-73
2021/06/06 03:21:23;;;;;;;7.32;3.55;;;15.80;99.90;;;;;;5095677;28;20497;-73
2021/06/06 03:24:09;;;;;;;5.13;3.17;;;15.40;99.90;;;;;;5087595;28;20103;-73
2021/06/06 03:26:35;;;;;;;5.57;3.55;;;15.40;99.90;;;;;;5096106;28;20405;-73
2021/06/06 03:29:03;;;;;;;6.88;3.72;;;15.40;99.90;;;;;;5103578;28;20152;-72
2021/06/06 03:31:36;;;;;;;6.75;4.43;;;15.40;99.90;;;;;;5103545;28;20028;-73
2021/06/06 03:34:04;;;;;;;4.88;2.75;;;15.40;99.90;;;;;;5099073;28;20043;-73
2021/06/06 03:36:42;;;;;;;7.57;3.33;;;15.50;99.90;;;;;;5083716;28;20414;-72
2021/06/06 03:39:12;;;;;;;6.85;3.70;;;15.20;99.90;;;;;;5086213;28;20029;-73
2021/06/06 03:41:38;;;;;;;6.25;3.75;;;15.20;99.90;;;;;;5092848;28;20027;-72
2021/06/06 03:44:04;;;;;;;7.55;3.45;;;15.20;99.90;;;;;;5107197;28;20023;-73
2021/06/06 03:46:30;;;;;;;7.35;3.60;;;15.10;99.90;;;;;;5088143;28;20107;-73
2021/06/06 03:48:56;;;;;;;5.63;3.63;;;15.20;99.90;;;;;;5087101;28;20150;-73
2021/06/06 03:51:23;;;;;;;5.53;3.72;;;15.10;99.90;;;;;;5087274;28;20499;-73
2021/06/06 03:53:49;;;;;;;8.15;3.75;;;15.20;99.90;;;;;;5087717;28;20473;-73
2021/06/06 03:56:15;;;;;;;6.80;3.58;;;15.30;99.90;;;;;;5087235;28;20036;-73
2021/06/06 03:58:41;;;;;;;7.70;4.30;;;15.30;99.90;;;;;;5087073;28;20036;-73
2021/06/06 04:01:08;;;;;;;5.70;3.50;;;15.30;99.90;;;;;;5087320;28;20101;-73
2021/06/06 04:03:34;;;;;;;7.25;3.72;;;15.40;99.90;;;;;;5087538;28;20028;-73
2021/06/06 04:06:00;;;;;;;7.78;4.00;;;15.30;99.90;;;;;;5092172;28;20019;-73
2021/06/06 04:08:26;;;;;;;6.90;3.95;;;15.30;99.90;;;;;;5107064;28;20119;-73
2021/06/06 04:10:53;;;;;;;5.50;3.28;;;15.50;99.90;;;;;;5106928;27;20020;-73
2021/06/06 04:13:18;;;;;;;6.18;3.85;;;15.60;99.90;;;;;;5106696;28;20142;-73
2021/06/06 04:15:44;;;;;;;7.68;3.78;;;15.50;99.90;;;;;;5104756;28;20135;-72
2021/06/06 04:18:18;;;;;;;8.00;3.55;;;15.40;99.90;;;;;;5107417;28;20026;-74
2021/06/06 04:20:45;;;;;;;8.02;3.92;;;15.50;99.90;;;;;;5091788;28;20032;-73
2021/06/06 04:23:12;;;;;;;5.07;3.40;;;15.60;99.90;;;;;;5107799;28;20487;-73
2021/06/06 04:25:38;;;;;;;6.82;3.72;;;15.70;99.90;;;;;;5086989;28;20035;-73
2021/06/06 04:28:04;;;;;;;6.35;3.28;;;15.80;99.90;;;;;;5086673;28;20028;-73
2021/06/06 04:30:30;;;;;;;7.45;4.00;;;15.70;99.90;;;;;;5087056;28;20065;-73
2021/06/06 04:32:57;;;;;;;6.70;3.20;;;15.70;99.90;;;;;;5094248;28;20468;-73
2021/06/06 04:35:22;;;;;;;6.00;3.70;;;15.60;99.90;;;;;;5103021;28;20040;-73
2021/06/06 04:37:48;;;;;;;5.40;3.35;;;15.60;99.90;;;;;;5085774;28;20540;-73
2021/06/06 04:40:16;;;;;;;6.63;3.72;;;15.70;99.90;;;;;;5086874;28;20115;-73
2021/06/06 04:42:42;;;;;;;7.88;3.35;;;15.60;99.90;;;;;;5086857;28;20081;-73
2021/06/06 04:45:11;;;;;;;8.90;3.65;;;15.60;99.90;;;;;;5101922;28;20055;-73
2021/06/06 04:47:36;;;;;;;6.88;3.85;;;15.70;99.90;;;;;;5095312;28;20473;-73
2021/06/06 04:50:06;;;;;;;6.63;3.60;;;15.90;99.90;;;;;;5094044;27;20031;-73
2021/06/06 04:52:36;;;;;;;7.13;3.97;;;15.90;99.90;;;;;;5086731;28;20028;-73
2021/06/06 04:55:16;;;;;;;9.90;3.78;;;16.10;99.90;;;;;;5086311;28;20036;-73
2021/06/06 04:57:41;;;;;;;5.45;2.88;;;16.30;99.90;;;;;;5086547;28;20059;-73
2021/06/06 05:00:10;;;;;;;6.03;3.00;;;16.00;99.90;;;;;;5085853;28;20539;-73
2021/06/06 05:02:36;;;;;;;5.28;3.17;;;16.10;99.90;;;;;;5085866;28;20448;-73
2021/06/06 05:05:02;;;;;;;7.20;3.13;;;16.10;99.90;;;;;;5097486;28;20042;-73
2021/06/06 05:07:28;;;;;;;8.05;3.05;;;16.10;99.90;;;;;;5104820;28;20031;-73
2021/06/06 05:09:54;;;;;;;6.68;3.25;;;16.00;99.90;;;;;;5092160;27;20066;-73
2021/06/06 05:12:20;;;;;;;7.78;3.42;;;16.30;99.90;;;;;;5085875;28;20064;-73
2021/06/06 05:14:45;;;;;;;4.57;3.03;;;16.50;99.90;;;;;;5085486;28;20048;-73
2021/06/06 05:17:11;;;;;;;7.85;3.40;;;16.60;99.90;;;;;;5086014;28;20036;-73
2021/06/06 05:19:37;;;;;;;7.18;3.65;;;16.70;99.90;;;;;;5093406;28;20653;-73
2021/06/06 05:22:05;;;;;;;8.13;3.67;;;16.70;99.90;;;;;;5102844;28;20027;-73
2021/06/06 05:24:31;;;;;;;8.52;3.80;;;16.80;99.90;;;;;;5092081;28;20020;-73
2021/06/06 05:26:57;;;;;;;9.98;4.20;;;16.90;99.90;;;;;;5086084;28;20501;-73
2021/06/06 05:29:24;;;;;;;7.80;3.50;;;17.00;99.90;;;;;;5085625;28;20606;-73
2021/06/06 05:31:50;;;;;;;8.80;3.25;;;17.00;99.90;;;;;;5085743;28;20123;-73
2021/06/06 05:34:17;;;;;;;6.57;3.20;;;17.20;99.90;;;;;;5086854;28;20044;-73
2021/06/06 05:36:43;;;;;;;8.02;3.13;;;17.30;99.90;;;;;;5104319;28;20042;-73
2021/06/06 05:39:09;;;;;;;5.43;3.15;;;17.40;99.90;;;;;;5104269;28;20023;-73
2021/06/06 05:41:35;;;;;;;5.93;3.33;;;17.50;99.90;;;;;;5092758;28;20081;-73
2021/06/06 05:44:01;;;;;;;5.97;3.33;;;17.50;99.90;;;;;;5086089;28;20081;-73
2021/06/06 05:46:27;;;;;;;7.18;3.55;;;17.40;99.90;;;;;;5085274;28;20039;-73
2021/06/06 05:48:53;;;;;;;6.80;3.10;;;17.50;99.90;;;;;;5094210;28;20497;-73
2021/06/06 05:51:19;;;;;;;7.50;3.10;;;17.70;99.90;;;;;;5102038;28;20024;-74
2021/06/06 05:53:45;;;;;;;5.20;3.05;;;17.80;99.90;;;;;;5103965;28;20576;-73
2021/06/06 05:56:12;;;;;;;9.52;3.00;;;17.70;99.90;;;;;;5086292;28;20479;-73
2021/06/06 05:58:39;;;;;;;6.70;3.20;;;18.00;99.90;;;;;;5098850;28;20457;-73
2021/06/06 06:01:07;;;;;;;6.43;3.33;;;18.10;99.90;;;;;;5085387;28;20424;-73
2021/06/06 06:03:33;;;;;;;5.03;3.35;;;18.20;99.90;;;;;;5085392;28;20028;-73
2021/06/06 06:05:59;;;;;;;6.53;2.80;;;18.10;99.90;;;;;;5084806;28;20024;-73
2021/06/06 06:08:32;;;;;;;8.05;3.50;;;18.20;99.90;;;;;;5085417;28;20049;-73
2021/06/06 06:10:59;;;;;;;6.55;3.40;;;18.30;99.90;;;;;;5101694;28;20099;-73
2021/06/06 06:13:28;;;;;;;8.52;3.90;;;18.40;99.90;;;;;;5097938;28;20027;-73
2021/06/06 06:15:56;;;;;;;6.15;3.55;;;18.30;99.90;;;;;;5100169;28;20131;-73
2021/06/06 06:18:25;;;;;;;6.15;2.70;;;18.40;99.90;;;;;;5105157;28;20026;-73
2021/06/06 06:20:51;;;;;;;6.85;3.90;;;18.50;99.90;;;;;;5085979;28;20040;-73
2021/06/06 06:23:17;;;;;;;5.90;3.35;;;18.60;99.90;;;;;;5085526;28;20048;-73
2021/06/06 06:25:43;;;;;;;6.25;3.25;;;18.60;99.90;;;;;;5083823;28;20028;-73
2021/06/06 06:28:10;;;;;;;6.47;3.38;;;18.40;99.90;;;;;;5088798;28;20044;-74
2021/06/06 06:30:38;;;;;;;4.70;2.90;;;18.40;99.90;;;;;;5091136;28;20020;-76
2021/06/06 06:33:06;;;;;;;5.13;3.08;;;18.50;99.90;;;;;;5095836;28;20055;-72
2021/06/06 06:35:33;;;;;;;4.35;3.00;;;18.50;99.90;;;;;;5103554;28;20038;-72
2021/06/06 06:38:00;;;;;;;5.85;3.22;;;18.60;99.90;;;;;;5101692;28;20028;-73
2021/06/06 06:40:27;;;;;;;6.78;3.47;;;18.60;99.90;;;;;;5083036;28;20039;-73
2021/06/06 06:42:55;;;;;;;7.40;3.97;;;18.70;99.90;;;;;;5091598;28;20524;-73
2021/06/06 06:45:25;;;;;;;7.38;3.08;;;18.80;99.90;;;;;;5100940;28;20028;-73
2021/06/06 06:47:56;;;;;;;4.78;3.08;;;18.60;99.90;;;;;;5104213;28;20035;-73
2021/06/06 06:50:22;;;;;;;6.95;3.50;;;18.50;99.90;;;;;;5097720;28;20043;-73
2021/06/06 06:52:48;;;;;;;8.77;3.00;;;18.50;99.90;;;;;;5095554;28;20024;-73
2021/06/06 06:55:18;;;;;;;5.20;2.80;;;18.60;99.90;;;;;;5096385;28;20040;-73
2021/06/06 06:57:45;;;;;;;4.80;2.70;;;18.80;99.90;;;;;;5100486;28;20129;-73
2021/06/06 07:00:16;;;;;;;6.28;3.10;;;19.10;99.90;;;;;;5102774;28;20101;-73
2021/06/06 07:02:42;;;;;;;4.40;2.80;;;19.40;99.90;;;;;;5098937;28;20027;-73
2021/06/06 07:05:08;;;;;;;5.35;2.95;;;19.40;99.90;;;;;;5084286;28;20024;-73
2021/06/06 07:07:34;;;;;;;7.28;2.92;;;19.40;99.90;;;;;;5083248;28;20125;-73
2021/06/06 07:10:03;;;;;;;4.75;2.65;;;19.50;99.90;;;;;;5083255;28;20019;-73
2021/06/06 07:12:29;;;;;;;6.47;2.40;;;19.90;99.90;;;;;;5088137;28;20107;-74
2021/06/06 07:14:55;;;;;;;4.53;3.00;;;20.10;99.90;;;;;;5083313;28;20953;-73
2021/06/06 07:17:21;;;;;;;5.72;2.72;;;20.40;99.90;;;;;;5084919;28;20028;-74
2021/06/06 07:19:48;;;;;;;5.25;2.40;;;20.60;99.90;;;;;;5083439;28;20020;-73
2021/06/06 07:22:14;;;;;;;4.68;2.58;;;20.80;99.90;;;;;;5085064;28;20556;-73
2021/06/06 07:24:40;;;;;;;5.97;2.80;;;20.70;99.90;;;;;;5087968;28;20024;-73
2021/06/06 07:27:07;;;;;;;5.70;2.95;;;21.10;99.90;;;;;;5089285;28;20435;-73
2021/06/06 07:29:34;;;;;;;7.38;2.78;;;21.80;99.90;;;;;;5096619;28;20031;-74
2021/06/06 07:32:02;;;;;;;4.97;2.90;;;22.40;99.90;;;;;;5102642;28;20039;-74
2021/06/06 07:34:29;;;;;;;5.28;2.25;;;23.30;99.00;;;;;;5091940;28;20097;-73
2021/06/06 07:37:02;;;;;;;7.43;2.78;;;24.30;97.90;;;;;;5094088;28;20035;-73
2021/06/06 07:39:28;;;;;;;4.70;2.73;;;24.50;96.80;;;;;;5087527;28;20032;-73
2021/06/06 07:41:55;;;;;;;4.20;2.45;;;24.80;96.30;;;;;;5083742;28;20016;-74
2021/06/06 07:44:23;;;;;;;6.13;2.67;;;24.90;96.30;;;;;;5083716;28;20028;-77
2021/06/06 07:46:49;;;;;;;4.35;2.47;;;25.00;96.80;;;;;;5086250;28;20034;-73
2021/06/06 07:49:16;;;;;;;7.03;2.65;;;24.30;97.10;;;;;;5083950;28;20145;-73
2021/06/06 07:51:42;;;;;;;9.40;2.88;;;24.30;97.20;;;;;;5092690;28;20024;-73
2021/06/06 07:54:09;;;;;;;6.50;2.60;;;24.10;98.00;;;;;;5085457;28;20038;-72
2021/06/06 07:56:35;;;;;;;5.43;2.42;;;23.80;97.80;;;;;;5089215;28;20106;-73
2021/06/06 07:59:03;;;;;;;7.93;3.17;;;23.30;98.70;;;;;;5093537;28;20020;-74
2021/06/06 08:01:29;;;;;;;5.82;2.83;;;23.00;99.20;;;;;;5098138;28;20082;-74
2021/06/06 08:03:56;;;;;;;4.15;2.30;;;22.90;99.80;;;;;;5083985;28;20077;-72
2021/06/06 08:06:22;;;;;;;5.35;2.45;;;22.70;99.90;;;;;;5085773;28;20832;-73
2021/06/06 08:08:49;;;;;;;5.20;3.28;;;22.60;99.90;;;;;;5094070;28;20019;-73
2021/06/06 08:11:15;;;;;;;5.63;2.85;;;22.80;99.30;;;;;;5086588;28;20052;-73
2021/06/06 08:13:43;;;;;;;7.30;3.03;;;23.00;99.60;;;;;;5088741;28;20054;-71
2021/06/06 08:16:10;;;;;;;6.50;3.03;;;23.10;99.00;;;;;;5096605;28;20199;-73
2021/06/06 08:18:39;;;;;;;7.15;3.15;;;23.10;99.20;;;;;;5083987;28;20051;-73
2021/06/06 08:21:18;;;;;;;6.93;2.63;;;22.90;99.00;;;;;;5093008;28;20047;-73
2021/06/06 08:23:44;;;;;;;4.90;2.65;;;22.70;99.10;;;;;;5094358;28;20040;-73
2021/06/06 08:26:12;;;;;;;6.15;2.53;;;22.60;98.70;;;;;;5102940;28;20031;-73
2021/06/06 08:28:38;;;;;;;5.00;2.45;;;22.50;99.80;;;;;;5098277;28;20040;-72
2021/06/06 08:31:08;;;;;;;5.72;3.15;;;22.50;99.70;;;;;;5096974;28;20060;-72
2021/06/06 08:33:36;;;;;;;7.53;2.63;;;22.70;98.90;;;;;;5090230;28;20047;-73
2021/06/06 08:36:07;;;;;;;6.35;2.50;;;22.90;98.90;;;;;;5097526;28;20038;-73
2021/06/06 08:38:34;;;;;;;3.55;1.95;;;23.10;98.20;;;;;;5087197;28;20093;-73
2021/06/06 08:41:09;;;;;;;8.95;2.70;;;23.00;98.20;;;;;;5093995;28;20024;-78
2021/06/06 08:43:44;;;;;;;5.07;2.80;;;23.10;98.30;;;;;;5087451;28;20042;-73
2021/06/06 08:46:13;;;;;;;5.60;2.35;;;23.00;98.60;;;;;;5085541;28;20340;-73
2021/06/06 08:48:40;;;;;;;5.32;2.47;;;23.10;98.70;;;;;;5085801;28;20107;-73
2021/06/06 08:51:12;;;;;;;5.32;2.80;;;23.10;98.60;;;;;;5086687;28;20039;-73
2021/06/06 08:54:14;;;;;;;4.45;2.45;;;23.00;98.10;;;;;;5086671;28;20016;-73
2021/06/06 08:56:41;;;;;;;5.75;2.30;;;23.00;98.20;;;;;;5082000;28;20573;-73
2021/06/06 08:59:31;;;;;;;7.88;2.92;;;23.40;98.00;;;;;;5088763;28;20035;-73
2021/06/06 09:02:22;;;;;;;5.20;2.50;;;23.40;98.90;;;;;;5085919;28;20028;-73
2021/06/06 09:04:50;;;;;;;5.57;2.80;;;23.70;97.80;;;;;;5091665;28;20035;-73
2021/06/06 09:07:32;;;;;;;5.50;2.92;;;23.80;98.50;;;;;;5098746;28;20113;-73
2021/06/06 09:10:12;;;;;;;8.13;2.95;;;23.70;97.50;;;;;;5086475;28;20044;-73
2021/06/06 09:12:39;;;;;;;4.57;2.42;;;23.70;97.60;;;;;;5085107;28;20021;-73
2021/06/06 09:15:08;;;;;;;6.60;2.60;;;23.30;97.80;;;;;;5085604;28;20048;-73
2021/06/06 09:17:49;;;;;;;5.40;2.35;;;22.90;98.40;;;;;;5068348;28;20048;-73
2021/06/06 09:20:41;;;;;;;4.57;2.50;;;22.50;98.60;;;;;;5086381;28;20658;-73
2021/06/06 09:23:26;;;;;;;4.10;2.47;;;22.70;98.10;;;;;;5085928;28;20086;-73
2021/06/06 09:26:21;;;;;;;5.20;2.53;;;23.70;98.20;;;;;;5085914;28;20028;-73
2021/06/06 09:29:01;;;;;;;5.40;2.58;;;23.70;98.20;;;;;;5088583;28;20102;-73
2021/06/06 09:31:29;;;;;;;4.40;2.97;;;23.80;97.80;;;;;;5105282;28;20630;-73
2021/06/06 09:33:55;;;;;;;7.00;3.00;;;23.70;96.60;;;;;;5088493;28;20036;-73
2021/06/06 09:36:32;;;;;;;10.13;5.45;;;23.30;97.60;;;;;;5105705;28;20546;-73
2021/06/06 09:39:04;;;;;;;4.00;2.22;;;23.00;97.90;;;;;;5096716;28;20020;-73
2021/06/06 09:41:37;;;;;;;3.50;2.08;;;22.70;97.80;;;;;;5084813;28;20036;-73
2021/06/06 09:44:09;;;;;;;5.63;2.22;;;22.70;97.80;;;;;;5085488;28;20036;-73
2021/06/06 09:46:39;;;;;;;4.30;2.38;;;22.70;97.70;;;;;;5085500;28;20043;-73
2021/06/06 09:49:28;;;;;;;4.45;2.03;;;22.60;98.30;;;;;;5085038;28;20024;-73
2021/06/06 09:51:57;;;;;;;5.93;2.25;;;22.60;99.10;;;;;;5087646;28;20567;-73
2021/06/06 09:54:34;;;;;;;13.65;10.23;;;22.40;98.20;;;;;;5085384;28;20039;-73
2021/06/06 09:57:04;;;;;;;6.57;3.33;;;22.30;98.50;;;;;;5094274;28;20065;-73
2021/06/06 09:59:35;;;;;;;7.22;2.72;;;22.40;98.40;;;;;;5085597;28;20052;-73
2021/06/06 10:02:30;;;;;;;5.97;2.47;;;22.70;99.00;;;;;;5098957;28;20049;-73
2021/06/06 10:05:14;;;;;;;5.88;2.55;;;23.20;98.00;;;;;;5105716;28;20020;-73
2021/06/06 10:07:44;;;;;;;6.28;2.78;;;23.50;96.90;;;;;;5101046;28;20020;-73
2021/06/06 10:10:32;;;;;;;3.42;1.80;;;23.70;96.20;;;;;;5087381;28;20042;-73
2021/06/06 10:13:01;;;;;;;4.18;1.52;;;23.60;96.00;;;;;;5103361;28;20089;-73
2021/06/06 10:15:52;;;;;;;3.58;1.70;;;23.40;96.40;;;;;;5104818;28;20105;-73
2021/06/06 10:18:32;;;;;;;3.88;1.67;;;23.60;96.80;;;;;;5105584;28;20032;-73
2021/06/06 10:21:20;;;;;;;3.78;1.83;;;23.50;95.90;;;;;;5104399;28;20493;-73
2021/06/06 10:24:00;;;;;;;5.82;1.65;;;23.40;95.30;;;;;;5094501;28;20485;-73
2021/06/06 10:26:52;;;;;;;3.00;1.70;;;22.90;96.30;;;;;;5102240;28;20654;-73
2021/06/06 10:29:42;;;;;;;3.20;1.50;;;22.60;96.20;;;;;;5102866;28;20024;-73
2021/06/06 10:32:25;;;;;;;4.10;1.65;;;22.40;97.40;;;;;;5084826;28;20027;-73
2021/06/06 10:35:00;;;;;;;4.43;1.38;;;22.40;97.80;;;;;;5083426;28;20038;-73
2021/06/06 10:37:29;;;;;;;2.50;1.33;;;22.30;97.40;;;;;;5084409;28;20059;-72
2021/06/06 10:40:00;;;;;;;3.58;1.48;;;22.30;98.00;;;;;;5084391;28;20505;-73
2021/06/06 10:42:43;;;;;;;2.72;1.65;;;22.10;98.20;;;;;;5084739;28;20047;-73
2021/06/06 10:45:36;;;;;;;2.65;1.40;;;22.30;98.60;;;;;;5084461;28;20058;-73
2021/06/06 10:48:22;;;;;;;2.97;1.70;;;22.30;98.50;;;;;;5098932;28;20034;-73
2021/06/06 10:50:53;;;;;;;3.00;1.67;;;22.40;98.30;;;;;;5104128;28;20032;-73
2021/06/06 10:53:22;;;;;;;2.40;1.08;;;22.30;97.80;;;;;;5104664;28;20098;-73
2021/06/06 10:56:30;;;;;;;4.65;2.00;;;22.30;98.00;;;;;;5084988;28;20047;-73
2021/06/06 10:59:03;;;;;;;3.10;1.60;;;22.40;98.90;;;;;;5089190;28;20069;-73
2021/06/06 11:01:47;;;;;;;4.15;1.60;;;22.20;99.80;;;;;;5084476;28;20118;-73
2021/06/06 11:04:17;;;;;;;4.13;1.90;;;22.10;99.90;;;;;;5090881;28;20427;-73
2021/06/06 11:06:48;;;;;;;2.90;1.27;;;21.80;99.90;;;;;;5084804;28;20040;-73
2021/06/06 11:09:37;;;;;;;2.90;1.50;;;21.70;99.90;;;;;;5084085;28;20016;-73
2021/06/06 11:12:27;;;;;;;2.90;1.70;;;21.60;99.90;;;;;;5084551;28;20031;-73
2021/06/06 11:14:54;;;;;;;6.20;2.05;;;21.80;99.90;;;;;;5083980;28;20060;-73
2021/06/06 11:17:37;;;;;;;4.30;1.85;;;22.20;99.90;;;;;;5084302;28;20498;-73
2021/06/06 11:20:11;;;;;;;3.10;1.33;;;22.90;98.70;;;;;;5084345;28;20028;-73
2021/06/06 11:22:40;;;;;;;6.47;1.80;;;23.30;95.60;;;;;;5104729;28;20034;-73
2021/06/06 11:25:24;;;;;;;4.45;2.00;;;23.60;95.30;;;;;;5090627;28;20086;-73
2021/06/06 11:27:58;;;;;;;3.67;1.27;;;23.90;95.90;;;;;;5084476;28;20028;-73
2021/06/06 11:30:24;;;;;;;4.20;1.70;;;24.30;96.00;;;;;;5084484;28;20038;-73
2021/06/06 11:33:10;;;;;;;3.08;1.75;;;24.60;96.10;;;;;;5084546;28;20028;-73
2021/06/06 11:35:39;;;;;;;5.13;2.20;;;25.00;95.60;;;;;;5082069;28;20034;-73
2021/06/06 11:38:27;;;;;;;6.03;1.70;;;25.20;95.30;;;;;;5084955;28;20039;-73
2021/06/06 11:41:22;;;;;;;5.38;1.60;;;25.50;94.40;;;;;;5083894;28;20020;-73
2021/06/06 11:44:21;;;;;;;6.35;1.70;;;25.70;94.20;;;;;;5084453;28;20540;-73
2021/06/06 11:47:15;;;;;;;5.15;1.55;;;25.70;93.50;;;;;;5091331;28;20059;-73
2021/06/06 11:50:09;;;;;;;4.82;1.92;;;25.60;93.60;;;;;;5104385;28;20026;-73
2021/06/06 11:52:42;;;;;;;5.40;1.58;;;25.90;94.10;;;;;;5104391;28;20115;-73
2021/06/06 11:55:29;;;;;;;3.20;2.00;;;26.00;93.10;;;;;;5093907;28;20555;-73
2021/06/06 11:58:16;;;;;;;5.93;1.75;;;26.10;92.30;;;;;;5084059;28;20032;-73
2021/06/06 12:01:22;;;;;;;4.40;1.77;;;26.00;92.40;;;;;;5087430;28;20554;-73
2021/06/06 12:03:50;;;;;;;3.92;1.50;;;25.70;93.20;;;;;;5087357;28;20523;-73
2021/06/06 12:06:20;;;;;;;6.20;1.83;;;26.10;93.00;;;;;;5087858;28;20046;-73
2021/06/06 12:08:53;;;;;;;4.45;1.67;;;25.90;92.60;;;;;;5108105;28;20102;-73
2021/06/06 12:11:19;;;;;;;3.95;1.55;;;25.50;92.50;;;;;;5096310;28;20027;-74
2021/06/06 12:13:48;;;;;;;5.93;2.15;;;25.70;92.60;;;;;;5086340;28;20032;-73
2021/06/06 12:16:33;;;;;;;6.50;1.70;;;25.20;92.70;;;;;;5086172;28;20502;-73
2021/06/06 12:19:12;;;;;;;3.53;2.05;;;25.70;93.80;;;;;;5087596;28;20020;-73
2021/06/06 12:21:42;;;;;;;8.35;2.22;;;25.60;93.60;;;;;;5086584;28;20124;-73
2021/06/06 12:24:24;;;;;;;4.10;1.85;;;25.80;93.70;;;;;;5097601;28;20023;-73
2021/06/06 12:27:01;;;;;;;4.60;2.37;;;25.70;93.80;;;;;;5092300;28;20631;-73
2021/06/06 12:29:33;;;;;;;9.70;2.33;;;25.40;93.80;;;;;;5086878;28;20028;-73
2021/06/06 12:32:12;;;;;;;5.50;2.00;;;25.30;93.50;;;;;;5069627;28;20047;-73
2021/06/06 12:34:41;;;;;;;3.95;1.92;;;25.30;93.60;;;;;;5086886;28;20738;-73
2021/06/06 12:37:11;;;;;;;4.80;2.00;;;25.60;93.70;;;;;;5088483;28;20051;-74
2021/06/06 12:39:42;;;;;;;5.57;1.52;;;25.90;93.50;;;;;;5107129;28;20023;-73
2021/06/06 12:42:11;;;;;;;4.85;1.90;;;26.00;93.40;;;;;;5106710;28;20107;-73
2021/06/06 12:44:45;;;;;;;5.05;1.33;;;25.90;93.00;;;;;;5107623;28;20027;-73
2021/06/06 12:47:34;;;;;;;4.18;1.60;;;26.10;92.70;;;;;;5088514;28;20035;-73
2021/06/06 12:50:14;;;;;;;3.72;1.63;;;25.90;92.50;;;;;;5086628;28;20024;-73
2021/06/06 12:52:44;;;;;;;4.45;1.45;;;26.00;93.00;;;;;;5085884;28;20032;-73
2021/06/06 12:55:40;;;;;;;3.58;1.52;;;26.20;92.80;;;;;;5086020;28;20040;-73
2021/06/06 12:58:15;;;;;;;6.32;1.35;;;26.50;92.60;;;;;;5073418;28;20032;-73
2021/06/06 13:00:54;;;;;;;4.40;1.30;;;26.30;92.30;;;;;;5086782;28;20032;-73
2021/06/06 13:03:45;;;;;;;4.85;1.20;;;26.30;91.90;;;;;;5097586;28;20027;-73
2021/06/06 13:06:37;;;;;;;2.90;1.15;;;25.70;91.70;;;;;;5107300;28;20033;-73
2021/06/06 13:09:25;;;;;;;2.50;1.10;;;25.50;91.50;;;;;;5096029;28;20474;-73
2021/06/06 13:12:14;;;;;;;2.95;1.30;;;25.90;91.20;;;;;;5086748;28;20059;-73
2021/06/06 13:15:09;;;;;;;3.55;1.35;;;25.50;91.20;;;;;;5090009;28;20043;-73
2021/06/06 13:17:53;;;;;;;3.20;1.20;;;25.20;91.40;;;;;;5086731;28;20032;-73